sensor_id;sensor_type;location;lat;lon;timestamp;pressure;altitude;pressure_sealevel;temperature;humidity
47897;BME280;39629;51.400;5.494;2023-07-13T00:03:21;101265.13;;;14.56;100.00
47897;BME280;39629;51.400;5.494;2023-07-13T00:08:23;101266.03;;;14.56;100.00
47897;BME280;39629;51.400;5.494;2023-07-13T00:13:27;101266.97;;;14.49;100.00
47897;BME280;39629;51.400;5.494;2023-07-13T00:18:30;101269.72;;;14.41;100.00
47897;BME280;39629;51.400;5.494;2023-07-13T00:23:32;101269.91;;;14.26;100.00
47897;BME280;39629;51.400;5.494;2023-07-13T00:28:37;101261.75;;;14.43;100.00
47897;BME280;39629;51.400;5.494;2023-07-13T00:33:40;101266.16;;;14.44;100.00
47897;BME280;39629;51.400;5.494;2023-07-13T00:38:42;101269.81;;;14.34;100.00
47897;BME280;39629;51.400;5.494;2023-07-13T00:43:46;101275.03;;;14.40;100.00
47897;BME280;39629;51.400;5.494;2023-07-13T00:48:49;101274.91;;;14.49;100.00
47897;BME280;39629;51.400;5.494;2023-07-13T00:53:53;101282.13;;;14.36;100.00
47897;BME280;39629;51.400;5.494;2023-07-13T00:58:59;101270.75;;;14.28;100.00
47897;BME280;39629;51.400;5.494;2023-07-13T01:04:01;101281.38;;;14.25;100.00
47897;BME280;39629;51.400;5.494;2023-07-13T01:09:04;101283.97;;;14.29;100.00
47897;BME280;39629;51.400;5.494;2023-07-13T01:14:09;101277.88;;;14.23;100.00
47897;BME280;39629;51.400;5.494;2023-07-13T01:24:39;101279.69;;;14.19;100.00
47897;BME280;39629;51.400;5.494;2023-07-13T01:29:44;101286.78;;;14.16;100.00
47897;BME280;39629;51.400;5.494;2023-07-13T01:34:48;101279.78;;;14.10;100.00
47897;BME280;39629;51.400;5.494;2023-07-13T01:39:53;101283.25;;;14.15;100.00
47897;BME280;39629;51.400;5.494;2023-07-13T01:44:55;101276.22;;;14.12;100.00
47897;BME280;39629;51.400;5.494;2023-07-13T01:49:57;101280.69;;;14.06;100.00
47897;BME280;39629;51.400;5.494;2023-07-13T01:55:01;101282.50;;;14.02;100.00
47897;BME280;39629;51.400;5.494;2023-07-13T02:00:05;101290.50;;;13.96;100.00
47897;BME280;39629;51.400;5.494;2023-07-13T02:05:16;101298.44;;;13.94;100.00
47897;BME280;39629;51.400;5.494;2023-07-13T02:10:20;101294.97;;;13.92;100.00
47897;BME280;39629;51.400;5.494;2023-07-13T02:15:22;101296.63;;;14.01;100.00
47897;BME280;39629;51.400;5.494;2023-07-13T02:20:24;101302.06;;;13.87;100.00
47897;BME280;39629;51.400;5.494;2023-07-13T02:25:28;101294.97;;;13.89;100.00
47897;BME280;39629;51.400;5.494;2023-07-13T02:30:30;101292.38;;;13.77;100.00
47897;BME280;39629;51.400;5.494;2023-07-13T02:35:32;101293.28;;;13.79;100.00
47897;BME280;39629;51.400;5.494;2023-07-13T02:40:36;101299.53;;;13.70;100.00
47897;BME280;39629;51.400;5.494;2023-07-13T02:45:43;101301.25;;;13.71;100.00
47897;BME280;39629;51.400;5.494;2023-07-13T02:50:45;101292.56;;;13.57;100.00
47897;BME280;39629;51.400;5.494;2023-07-13T02:55:49;101296.09;;;13.56;100.00
47897;BME280;39629;51.400;5.494;2023-07-13T03:00:51;101297.00;;;13.53;100.00
47897;BME280;39629;51.400;5.494;2023-07-13T03:05:59;101304.13;;;13.48;100.00
47897;BME280;39629;51.400;5.494;2023-07-13T03:11:08;101308.47;;;13.54;100.00
47897;BME280;39629;51.400;5.494;2023-07-13T03:16:15;101300.50;;;13.58;100.00
47897;BME280;39629;51.400;5.494;2023-07-13T03:21:19;101318.25;;;13.38;100.00
47897;BME280;39629;51.400;5.494;2023-07-13T03:26:23;101314.81;;;13.33;100.00
47897;BME280;39629;51.400;5.494;2023-07-13T03:31:27;101315.63;;;13.36;100.00
47897;BME280;39629;51.400;5.494;2023-07-13T03:36:31;101322.69;;;13.37;100.00
47897;BME280;39629;51.400;5.494;2023-07-13T03:41:39;101328.88;;;13.33;100.00
47897;BME280;39629;51.400;5.494;2023-07-13T03:46:42;101330.66;;;13.33;100.00
47897;BME280;39629;51.400;5.494;2023-07-13T03:51:44;101335.09;;;13.27;100.00
47897;BME280;39629;51.400;5.494;2023-07-13T03:56:48;101338.53;;;13.39;100.00
47897;BME280;39629;51.400;5.494;2023-07-13T04:01:51;101330.56;;;13.45;100.00
47897;BME280;39629;51.400;5.494;2023-07-13T04:06:53;101333.19;;;13.48;100.00
47897;BME280;39629;51.400;5.494;2023-07-13T04:11:57;101345.47;;;13.57;100.00
47897;BME280;39629;51.400;5.494;2023-07-13T04:17:02;101348.06;;;13.61;100.00
47897;BME280;39629;51.400;5.494;2023-07-13T04:22:04;101352.41;;;13.73;100.00
47897;BME280;39629;51.400;5.494;2023-07-13T04:27:08;101347.91;;;13.83;100.00
47897;BME280;39629;51.400;5.494;2023-07-13T04:32:09;101345.22;;;13.89;100.00
47897;BME280;39629;51.400;5.494;2023-07-13T04:37:11;101351.22;;;14.10;100.00
47897;BME280;39629;51.400;5.494;2023-07-13T04:42:15;101355.53;;;14.23;100.00
47897;BME280;39629;51.400;5.494;2023-07-13T04:47:17;101370.38;;;14.40;100.00
47897;BME280;39629;51.400;5.494;2023-07-13T04:52:19;101365.84;;;14.51;100.00
47897;BME280;39629;51.400;5.494;2023-07-13T04:57:23;101372.78;;;14.60;100.00
47897;BME280;39629;51.400;5.494;2023-07-13T05:02:25;101374.38;;;14.76;100.00
47897;BME280;39629;51.400;5.494;2023-07-13T05:07:29;101382.13;;;14.93;100.00
47897;BME280;39629;51.400;5.494;2023-07-13T05:12:36;101385.44;;;15.11;100.00
47897;BME280;39629;51.400;5.494;2023-07-13T05:17:38;101395.72;;;15.39;100.00
47897;BME280;39629;51.400;5.494;2023-07-13T05:22:41;101383.84;;;15.63;100.00
47897;BME280;39629;51.400;5.494;2023-07-13T05:27:44;101395.72;;;15.98;100.00
47897;BME280;39629;51.400;5.494;2023-07-13T05:32:47;101392.00;;;16.07;100.00
47897;BME280;39629;51.400;5.494;2023-07-13T05:37:49;101399.19;;;16.00;100.00
47897;BME280;39629;51.400;5.494;2023-07-13T05:42:52;101408.81;;;16.07;100.00
47897;BME280;39629;51.400;5.494;2023-07-13T05:47:54;101412.50;;;15.98;100.00
47897;BME280;39629;51.400;5.494;2023-07-13T05:52:56;101418.66;;;16.02;100.00
47897;BME280;39629;51.400;5.494;2023-07-13T05:58:01;101411.56;;;16.01;100.00
47897;BME280;39629;51.400;5.494;2023-07-13T06:03:02;101414.81;;;16.20;100.00
47897;BME280;39629;51.400;5.494;2023-07-13T06:08:05;101419.69;;;16.45;100.00
47897;BME280;39629;51.400;5.494;2023-07-13T06:13:08;101427.41;;;16.60;100.00
47897;BME280;39629;51.400;5.494;2023-07-13T06:18:10;101440.88;;;16.49;100.00
47897;BME280;39629;51.400;5.494;2023-07-13T06:23:12;101438.38;;;16.40;100.00
47897;BME280;39629;51.400;5.494;2023-07-13T06:28:16;101433.66;;;16.58;100.00
47897;BME280;39629;51.400;5.494;2023-07-13T06:33:18;101438.56;;;16.79;100.00
47897;BME280;39629;51.400;5.494;2023-07-13T06:38:20;101438.34;;;16.90;100.00
47897;BME280;39629;51.400;5.494;2023-07-13T06:43:24;101446.09;;;17.02;100.00
47897;BME280;39629;51.400;5.494;2023-07-13T06:48:26;101458.09;;;16.77;100.00
47897;BME280;39629;51.400;5.494;2023-07-13T06:53:29;101454.31;;;16.90;100.00
47897;BME280;39629;51.400;5.494;2023-07-13T06:58:34;101459.09;;;17.16;100.00
47897;BME280;39629;51.400;5.494;2023-07-13T07:03:35;101459.72;;;17.29;100.00
47897;BME280;39629;51.400;5.494;2023-07-13T07:08:37;101457.16;;;17.25;100.00
47897;BME280;39629;51.400;5.494;2023-07-13T07:13:41;101465.28;;;17.17;100.00
47897;BME280;39629;51.400;5.494;2023-07-13T07:18:43;101468.75;;;17.22;100.00
47897;BME280;39629;51.400;5.494;2023-07-13T07:23:45;101464.97;;;17.32;100.00
47897;BME280;39629;51.400;5.494;2023-07-13T07:28:49;101463.47;;;17.64;100.00
47897;BME280;39629;51.400;5.494;2023-07-13T07:33:50;101468.13;;;17.53;100.00
47897;BME280;39629;51.400;5.494;2023-07-13T07:38:52;101469.50;;;17.71;100.00
47897;BME280;39629;51.400;5.494;2023-07-13T07:43:56;101481.31;;;17.98;100.00
47897;BME280;39629;51.400;5.494;2023-07-13T07:48:58;101458.94;;;19.09;100.00
47897;BME280;39629;51.400;5.494;2023-07-13T07:54:00;101472.00;;;19.18;100.00
47897;BME280;39629;51.400;5.494;2023-07-13T07:59:03;101476.00;;;19.65;100.00
47897;BME280;39629;51.400;5.494;2023-07-13T08:04:05;101471.50;;;20.50;100.00
47897;BME280;39629;51.400;5.494;2023-07-13T08:09:07;101481.44;;;20.47;100.00
47897;BME280;39629;51.400;5.494;2023-07-13T08:14:10;101483.97;;;21.02;100.00
47897;BME280;39629;51.400;5.494;2023-07-13T08:19:12;101470.50;;;20.80;100.00
47897;BME280;39629;51.400;5.494;2023-07-13T08:24:14;101465.25;;;21.73;100.00
47897;BME280;39629;51.400;5.494;2023-07-13T08:29:20;101473.34;;;22.17;100.00
47897;BME280;39629;51.400;5.494;2023-07-13T08:34:22;101473.47;;;21.21;100.00
47897;BME280;39629;51.400;5.494;2023-07-13T08:39:24;101476.19;;;21.67;100.00
47897;BME280;39629;51.400;5.494;2023-07-13T08:44:38;101468.91;;;20.99;100.00
47897;BME280;39629;51.400;5.494;2023-07-13T08:49:42;101474.94;;;21.04;100.00
47897;BME280;39629;51.400;5.494;2023-07-13T08:54:49;101472.69;;;20.93;100.00
47897;BME280;39629;51.400;5.494;2023-07-13T08:59:53;101474.97;;;21.75;100.00
47897;BME280;39629;51.400;5.494;2023-07-13T09:05:00;101468.03;;;21.48;100.00
47897;BME280;39629;51.400;5.494;2023-07-13T09:10:11;101466.88;;;21.31;100.00
47897;BME280;39629;51.400;5.494;2023-07-13T09:15:23;101468.81;;;23.41;100.00
47897;BME280;39629;51.400;5.494;2023-07-13T09:20:31;101466.69;;;22.26;100.00
47897;BME280;39629;51.400;5.494;2023-07-13T09:25:36;101468.03;;;21.24;100.00
47897;BME280;39629;51.400;5.494;2023-07-13T09:30:46;101468.94;;;21.47;100.00
47897;BME280;39629;51.400;5.494;2023-07-13T09:35:49;101481.47;;;21.92;100.00
47897;BME280;39629;51.400;5.494;2023-07-13T09:41:38;101469.88;;;23.37;100.00
47897;BME280;39629;51.400;5.494;2023-07-13T09:46:55;101472.25;;;24.37;100.00
47897;BME280;39629;51.400;5.494;2023-07-13T09:52:02;101472.38;;;23.99;100.00
47897;BME280;39629;51.400;5.494;2023-07-13T09:57:15;101465.25;;;23.79;100.00
47897;BME280;39629;51.400;5.494;2023-07-13T10:02:27;101481.44;;;22.36;100.00
47897;BME280;39629;51.400;5.494;2023-07-13T10:07:31;101468.25;;;24.09;100.00
47897;BME280;39629;51.400;5.494;2023-07-13T10:12:37;101475.00;;;23.81;100.00
47897;BME280;39629;51.400;5.494;2023-07-13T10:17:42;101480.56;;;22.78;100.00
47897;BME280;39629;51.400;5.494;2023-07-13T10:22:56;101478.28;;;24.60;100.00
47897;BME280;39629;51.400;5.494;2023-07-13T10:28:05;101476.91;;;23.79;100.00
47897;BME280;39629;51.400;5.494;2023-07-13T10:33:13;101460.94;;;25.00;100.00
47897;BME280;39629;51.400;5.494;2023-07-13T10:38:21;101471.56;;;24.33;100.00
47897;BME280;39629;51.400;5.494;2023-07-13T10:43:27;101472.63;;;24.12;100.00
47897;BME280;39629;51.400;5.494;2023-07-13T10:48:33;101477.97;;;23.56;100.00
47897;BME280;39629;51.400;5.494;2023-07-13T10:53:38;101496.59;;;22.80;100.00
47897;BME280;39629;51.400;5.494;2023-07-13T10:58:42;101501.28;;;21.40;100.00
47897;BME280;39629;51.400;5.494;2023-07-13T11:03:50;101496.91;;;23.34;100.00
47897;BME280;39629;51.400;5.494;2023-07-13T11:08:59;101494.47;;;23.87;100.00
47897;BME280;39629;51.400;5.494;2023-07-13T11:14:26;101488.38;;;23.64;100.00
47897;BME280;39629;51.400;5.494;2023-07-13T11:19:44;101490.78;;;23.11;100.00
47897;BME280;39629;51.400;5.494;2023-07-13T11:24:57;101478.69;;;23.01;100.00
47897;BME280;39629;51.400;5.494;2023-07-13T11:35:36;101480.09;;;23.88;100.00
47897;BME280;39629;51.400;5.494;2023-07-13T11:40:39;101477.69;;;24.18;100.00
47897;BME280;39629;51.400;5.494;2023-07-13T11:45:41;101480.19;;;23.27;100.00
47897;BME280;39629;51.400;5.494;2023-07-13T11:50:50;101486.84;;;24.68;100.00
47897;BME280;39629;51.400;5.494;2023-07-13T11:55:53;101475.66;;;25.11;100.00
47897;BME280;39629;51.400;5.494;2023-07-13T12:00:58;101478.94;;;25.49;100.00
47897;BME280;39629;51.400;5.494;2023-07-13T12:06:04;101484.47;;;25.30;98.05
47897;BME280;39629;51.400;5.494;2023-07-13T12:11:15;101485.91;;;25.54;77.08
47897;BME280;39629;51.400;5.494;2023-07-13T12:16:25;101480.88;;;25.63;56.82
47897;BME280;39629;51.400;5.494;2023-07-13T12:21:33;101492.91;;;25.90;54.30
47897;BME280;39629;51.400;5.494;2023-07-13T12:26:36;101496.31;;;25.93;52.61
47897;BME280;39629;51.400;5.494;2023-07-13T12:31:41;101492.75;;;27.29;48.18
47897;BME280;39629;51.400;5.494;2023-07-13T12:36:50;101497.06;;;26.58;47.39
47897;BME280;39629;51.400;5.494;2023-07-13T12:41:53;101504.72;;;27.39;47.35
47897;BME280;39629;51.400;5.494;2023-07-13T12:46:58;101520.75;;;24.55;51.93
47897;BME280;39629;51.400;5.494;2023-07-13T12:52:03;101519.28;;;23.54;54.86
47897;BME280;39629;51.400;5.494;2023-07-13T12:57:05;101534.13;;;23.02;64.64
47897;BME280;39629;51.400;5.494;2023-07-13T13:02:23;101540.91;;;22.68;65.58
47897;BME280;39629;51.400;5.494;2023-07-13T13:07:30;101534.31;;;21.65;98.99
47897;BME280;39629;51.400;5.494;2023-07-13T13:12:35;101544.69;;;21.25;100.00
47897;BME280;39629;51.400;5.494;2023-07-13T13:17:37;101552.88;;;20.68;100.00
47897;BME280;39629;51.400;5.494;2023-07-13T13:22:41;101569.31;;;20.57;100.00
47897;BME280;39629;51.400;5.494;2023-07-13T13:27:44;101577.88;;;20.40;100.00
47897;BME280;39629;51.400;5.494;2023-07-13T13:32:48;101577.16;;;20.35;100.00
47897;BME280;39629;51.400;5.494;2023-07-13T13:37:51;101573.06;;;20.79;100.00
47897;BME280;39629;51.400;5.494;2023-07-13T13:42:53;101574.47;;;20.89;100.00
47897;BME280;39629;51.400;5.494;2023-07-13T13:47:56;101574.19;;;20.98;100.00
47897;BME280;39629;51.400;5.494;2023-07-13T13:53:01;101571.88;;;21.13;100.00
47897;BME280;39629;51.400;5.494;2023-07-13T13:58:04;101590.81;;;20.81;100.00
47897;BME280;39629;51.400;5.494;2023-07-13T14:03:13;101593.72;;;20.47;100.00
47897;BME280;39629;51.400;5.494;2023-07-13T14:08:18;101591.34;;;20.07;100.00
47897;BME280;39629;51.400;5.494;2023-07-13T14:13:24;101590.56;;;20.34;100.00
47897;BME280;39629;51.400;5.494;2023-07-13T14:18:27;101594.56;;;20.19;100.00
47897;BME280;39629;51.400;5.494;2023-07-13T14:23:31;101591.91;;;20.47;100.00
47897;BME280;39629;51.400;5.494;2023-07-13T14:28:42;101595.16;;;20.29;100.00
47897;BME280;39629;51.400;5.494;2023-07-13T14:33:45;101587.47;;;20.46;100.00
47897;BME280;39629;51.400;5.494;2023-07-13T14:38:49;101586.72;;;20.42;100.00
47897;BME280;39629;51.400;5.494;2023-07-13T14:43:51;101587.91;;;20.34;100.00
47897;BME280;39629;51.400;5.494;2023-07-13T14:48:54;101581.09;;;20.52;100.00
47897;BME280;39629;51.400;5.494;2023-07-13T14:54:04;101582.63;;;20.59;100.00
47897;BME280;39629;51.400;5.494;2023-07-13T14:59:06;101578.19;;;20.31;100.00
47897;BME280;39629;51.400;5.494;2023-07-13T15:04:08;101573.59;;;20.63;100.00
47897;BME280;39629;51.400;5.494;2023-07-13T15:09:12;101571.72;;;21.19;100.00
47897;BME280;39629;51.400;5.494;2023-07-13T15:14:13;101576.00;;;20.98;97.12
47897;BME280;39629;51.400;5.494;2023-07-13T15:19:18;101563.69;;;21.17;94.34
47897;BME280;39629;51.400;5.494;2023-07-13T15:24:21;101556.41;;;21.48;89.38
47897;BME280;39629;51.400;5.494;2023-07-13T15:29:23;101549.53;;;22.34;93.59
47897;BME280;39629;51.400;5.494;2023-07-13T15:34:26;101557.56;;;22.11;81.30
47897;BME280;39629;51.400;5.494;2023-07-13T15:39:29;101552.13;;;22.78;82.79
47897;BME280;39629;51.400;5.494;2023-07-13T15:44:32;101548.94;;;22.48;79.53
47897;BME280;39629;51.400;5.494;2023-07-13T15:49:34;101550.13;;;21.94;80.96
47897;BME280;39629;51.400;5.494;2023-07-13T15:54:39;101548.09;;;21.77;86.10
47897;BME280;39629;51.400;5.494;2023-07-13T15:59:41;101558.03;;;21.52;89.19
47897;BME280;39629;51.400;5.494;2023-07-13T16:04:44;101552.75;;;21.49;86.63
47897;BME280;39629;51.400;5.494;2023-07-13T16:09:47;101550.25;;;21.44;85.64
47897;BME280;39629;51.400;5.494;2023-07-13T16:14:50;101562.19;;;21.10;91.44
47897;BME280;39629;51.400;5.494;2023-07-13T16:19:52;101567.19;;;20.94;92.72
47897;BME280;39629;51.400;5.494;2023-07-13T16:24:58;101566.25;;;20.68;98.55
47897;BME280;39629;51.400;5.494;2023-07-13T16:30:11;101568.06;;;20.68;94.90
47897;BME280;39629;51.400;5.494;2023-07-13T16:35:13;101561.25;;;20.59;86.79
47897;BME280;39629;51.400;5.494;2023-07-13T16:40:22;101557.88;;;20.79;85.97
47897;BME280;39629;51.400;5.494;2023-07-13T16:45:27;101566.69;;;20.56;87.59
47897;BME280;39629;51.400;5.494;2023-07-13T16:50:32;101571.72;;;20.38;91.17
47897;BME280;39629;51.400;5.494;2023-07-13T16:55:36;101564.25;;;20.20;95.60
47897;BME280;39629;51.400;5.494;2023-07-13T17:00:38;101579.13;;;19.99;95.73
47897;BME280;39629;51.400;5.494;2023-07-13T17:05:43;101573.59;;;19.75;94.09
47897;BME280;39629;51.400;5.494;2023-07-13T17:10:48;101589.72;;;19.40;100.00
47897;BME280;39629;51.400;5.494;2023-07-13T17:15:52;101585.63;;;18.93;100.00
47897;BME280;39629;51.400;5.494;2023-07-13T17:20:56;101583.38;;;18.77;100.00
47897;BME280;39629;51.400;5.494;2023-07-13T17:26:00;101569.97;;;18.43;100.00
47897;BME280;39629;51.400;5.494;2023-07-13T17:31:04;101567.19;;;18.47;100.00
47897;BME280;39629;51.400;5.494;2023-07-13T17:36:11;101566.41;;;18.44;100.00
47897;BME280;39629;51.400;5.494;2023-07-13T17:41:14;101560.91;;;18.50;100.00
47897;BME280;39629;51.400;5.494;2023-07-13T17:46:21;101570.13;;;18.72;100.00
47897;BME280;39629;51.400;5.494;2023-07-13T17:51:25;101568.16;;;18.81;100.00
47897;BME280;39629;51.400;5.494;2023-07-13T17:56:29;101570.09;;;19.08;100.00
47897;BME280;39629;51.400;5.494;2023-07-13T18:01:34;101564.94;;;19.02;100.00
47897;BME280;39629;51.400;5.494;2023-07-13T18:06:44;101573.75;;;19.06;100.00
47897;BME280;39629;51.400;5.494;2023-07-13T18:11:54;101558.84;;;18.97;100.00
47897;BME280;39629;51.400;5.494;2023-07-13T18:16:58;101557.91;;;18.98;100.00
47897;BME280;39629;51.400;5.494;2023-07-13T18:22:02;101569.81;;;18.85;100.00
47897;BME280;39629;51.400;5.494;2023-07-13T18:27:06;101579.84;;;18.75;100.00
47897;BME280;39629;51.400;5.494;2023-07-13T18:32:13;101575.53;;;18.69;100.00
47897;BME280;39629;51.400;5.494;2023-07-13T18:37:44;101584.50;;;18.67;100.00
47897;BME280;39629;51.400;5.494;2023-07-13T18:42:48;101584.44;;;18.70;100.00
47897;BME280;39629;51.400;5.494;2023-07-13T18:47:55;101586.38;;;18.63;100.00
47897;BME280;39629;51.400;5.494;2023-07-13T18:52:59;101585.72;;;18.53;100.00
47897;BME280;39629;51.400;5.494;2023-07-13T18:58:02;101583.34;;;18.39;100.00
47897;BME280;39629;51.400;5.494;2023-07-13T19:03:12;101585.84;;;18.47;100.00
47897;BME280;39629;51.400;5.494;2023-07-13T19:08:18;101590.31;;;18.47;100.00
47897;BME280;39629;51.400;5.494;2023-07-13T19:13:25;101577.22;;;18.36;100.00
47897;BME280;39629;51.400;5.494;2023-07-13T19:18:27;101581.84;;;18.28;100.00
47897;BME280;39629;51.400;5.494;2023-07-13T19:23:33;101582.44;;;18.01;100.00
47897;BME280;39629;51.400;5.494;2023-07-13T19:28:39;101573.31;;;17.71;100.00
47897;BME280;39629;51.400;5.494;2023-07-13T19:33:41;101581.53;;;17.60;100.00
47897;BME280;39629;51.400;5.494;2023-07-13T19:38:44;101589.94;;;17.39;100.00
47897;BME280;39629;51.400;5.494;2023-07-13T19:43:49;101591.31;;;17.10;100.00
47897;BME280;39629;51.400;5.494;2023-07-13T19:48:51;101591.84;;;16.79;100.00
47897;BME280;39629;51.400;5.494;2023-07-13T19:53:56;101603.56;;;16.65;100.00
47897;BME280;39629;51.400;5.494;2023-07-13T20:05:17;101614.09;;;16.11;100.00
47897;BME280;39629;51.400;5.494;2023-07-13T20:10:21;101605.56;;;15.86;100.00
47897;BME280;39629;51.400;5.494;2023-07-13T20:15:27;101609.78;;;16.00;100.00
47897;BME280;39629;51.400;5.494;2023-07-13T20:20:32;101610.56;;;16.09;100.00
47897;BME280;39629;51.400;5.494;2023-07-13T20:25:35;101607.91;;;16.09;100.00
47897;BME280;39629;51.400;5.494;2023-07-13T20:30:41;101612.34;;;16.10;100.00
47897;BME280;39629;51.400;5.494;2023-07-13T20:35:45;101615.81;;;16.15;100.00
47897;BME280;39629;51.400;5.494;2023-07-13T20:40:48;101618.28;;;15.57;100.00
47897;BME280;39629;51.400;5.494;2023-07-13T20:45:57;101616.97;;;15.10;100.00
47897;BME280;39629;51.400;5.494;2023-07-13T20:51:00;101626.47;;;15.37;100.00
47897;BME280;39629;51.400;5.494;2023-07-13T20:56:04;101626.47;;;15.37;100.00
47897;BME280;39629;51.400;5.494;2023-07-13T21:01:18;101621.84;;;15.53;100.00
47897;BME280;39629;51.400;5.494;2023-07-13T21:06:21;101622.81;;;15.46;100.00
47897;BME280;39629;51.400;5.494;2023-07-13T21:11:24;101622.75;;;15.55;100.00
47897;BME280;39629;51.400;5.494;2023-07-13T21:16:28;101630.69;;;15.57;100.00
47897;BME280;39629;51.400;5.494;2023-07-13T21:21:31;101623.34;;;15.79;100.00
47897;BME280;39629;51.400;5.494;2023-07-13T21:26:33;101632.59;;;15.44;100.00
47897;BME280;39629;51.400;5.494;2023-07-13T21:31:37;101627.13;;;15.59;100.00
47897;BME280;39629;51.400;5.494;2023-07-13T21:36:39;101631.44;;;15.68;100.00
47897;BME280;39629;51.400;5.494;2023-07-13T21:41:41;101636.56;;;15.83;100.00
47897;BME280;39629;51.400;5.494;2023-07-13T21:46:45;101671.03;;;15.88;100.00
47897;BME280;39629;51.400;5.494;2023-07-13T21:51:47;101670.94;;;15.94;100.00
47897;BME280;39629;51.400;5.494;2023-07-13T21:56:50;101644.63;;;15.73;100.00
47897;BME280;39629;51.400;5.494;2023-07-13T22:01:54;101659.47;;;15.89;100.00
47897;BME280;39629;51.400;5.494;2023-07-13T22:06:57;101656.91;;;15.83;100.00
47897;BME280;39629;51.400;5.494;2023-07-13T22:12:00;101647.28;;;15.76;100.00
47897;BME280;39629;51.400;5.494;2023-07-13T22:17:05;101645.56;;;15.70;100.00
47897;BME280;39629;51.400;5.494;2023-07-13T22:22:07;101631.41;;;15.70;100.00
47897;BME280;39629;51.400;5.494;2023-07-13T22:27:10;101632.41;;;15.61;100.00
47897;BME280;39629;51.400;5.494;2023-07-13T22:32:13;101628.00;;;15.58;100.00
47897;BME280;39629;51.400;5.494;2023-07-13T22:37:17;101629.00;;;15.49;100.00
47897;BME280;39629;51.400;5.494;2023-07-13T22:42:19;101630.81;;;15.43;100.00
47897;BME280;39629;51.400;5.494;2023-07-13T22:47:22;101627.41;;;15.31;100.00
47897;BME280;39629;51.400;5.494;2023-07-13T22:52:24;101630.00;;;15.36;100.00
47897;BME280;39629;51.400;5.494;2023-07-13T22:57:27;101629.94;;;15.41;100.00
47897;BME280;39629;51.400;5.494;2023-07-13T23:02:30;101626.44;;;15.39;100.00
47897;BME280;39629;51.400;5.494;2023-07-13T23:07:32;101624.88;;;15.19;100.00
47897;BME280;39629;51.400;5.494;2023-07-13T23:12:34;101617.91;;;15.03;100.00
47897;BME280;39629;51.400;5.494;2023-07-13T23:17:39;101612.72;;;14.90;100.00
47897;BME280;39629;51.400;5.494;2023-07-13T23:22:43;101606.59;;;14.82;100.00
47897;BME280;39629;51.400;5.494;2023-07-13T23:28:05;101612.00;;;14.70;100.00
47897;BME280;39629;51.400;5.494;2023-07-13T23:33:18;101611.25;;;14.54;100.00
47897;BME280;39629;51.400;5.494;2023-07-13T23:38:21;101603.44;;;14.29;100.00
47897;BME280;39629;51.400;5.494;2023-07-13T23:43:23;101599.94;;;14.28;100.00
47897;BME280;39629;51.400;5.494;2023-07-13T23:48:28;101603.47;;;14.27;100.00
47897;BME280;39629;51.400;5.494;2023-07-13T23:53:30;101602.50;;;14.39;100.00
47897;BME280;39629;51.400;5.494;2023-07-13T23:58:32;101598.16;;;14.27;100.00
